createdAt,value
2016-06-28T00:00:02.441Z,99.99
2016-06-28T00:00:32.424Z,99.99
2016-06-28T00:01:02.452Z,99.99
2016-06-28T00:01:32.463Z,99.99
2016-06-28T00:02:02.462Z,99.99
2016-06-28T00:02:32.500Z,99.99
2016-06-28T00:03:02.510Z,99.99
2016-06-28T00:03:32.530Z,99.99
2016-06-28T00:04:02.543Z,99.99
2016-06-28T00:04:32.577Z,99.99
2016-06-28T00:05:02.576Z,99.99
2016-06-28T00:05:32.570Z,99.99
2016-06-28T00:06:02.589Z,99.99
2016-06-28T00:06:32.614Z,99.99
2016-06-28T00:07:02.657Z,99.99
2016-06-28T00:07:32.629Z,99.99
2016-06-28T00:08:02.689Z,99.99
2016-06-28T00:08:32.684Z,99.99
2016-06-28T00:09:02.683Z,99.99
2016-06-28T00:09:32.672Z,99.99
2016-06-28T00:10:02.723Z,99.99
2016-06-28T00:10:32.740Z,99.99
2016-06-28T00:11:02.745Z,99.99
2016-06-28T00:11:32.756Z,99.99
2016-06-28T00:12:02.176Z,99.99
2016-06-28T00:12:32.774Z,99.99
2016-06-28T00:13:02.802Z,99.99
2016-06-28T00:13:32.805Z,99.99
2016-06-28T00:14:02.859Z,99.99
2016-06-28T00:14:32.852Z,99.99
2016-06-28T00:15:02.838Z,99.99
2016-06-28T00:15:32.873Z,99.99
2016-06-28T00:16:02.887Z,99.99
2016-06-28T00:16:32.917Z,99.99
2016-06-28T00:17:02.913Z,99.99
2016-06-28T00:17:32.920Z,99.99
2016-06-28T00:18:02.929Z,99.99
2016-06-28T00:18:32.956Z,99.99
2016-06-28T00:19:03.197Z,99.99
2016-06-28T00:19:32.981Z,99.99
2016-06-28T00:20:02.989Z,99.99
2016-06-28T00:20:33.010Z,99.99
2016-06-28T00:21:03.052Z,99.99
2016-06-28T00:21:33.037Z,99.99
2016-06-28T00:22:03.049Z,99.99
2016-06-28T00:22:33.055Z,99.99
2016-06-28T00:23:03.096Z,99.99
2016-06-28T00:23:33.106Z,99.99
2016-06-28T00:24:03.149Z,99.99
2016-06-28T00:24:33.142Z,99.99
2016-06-28T00:25:03.218Z,99.99
2016-06-28T00:25:33.165Z,99.99
2016-06-28T00:26:03.178Z,99.99
2016-06-28T00:26:33.182Z,99.99
2016-06-28T00:27:03.227Z,99.99
2016-06-28T00:27:33.227Z,99.99
2016-06-28T00:28:03.236Z,99.99
2016-06-28T00:28:33.247Z,99.99
2016-06-28T00:29:03.273Z,99.99
2016-06-28T00:29:33.297Z,99.99
2016-06-28T00:30:03.343Z,99.99
2016-06-28T00:30:33.309Z,99.99
2016-06-28T00:31:03.316Z,99.99
2016-06-28T00:31:33.321Z,99.99
2016-06-28T00:32:03.420Z,99.99
2016-06-28T00:32:33.367Z,99.99
2016-06-28T00:33:03.387Z,99.99
2016-06-28T00:33:33.395Z,99.99
2016-06-28T00:34:03.439Z,99.99
2016-06-28T00:34:33.416Z,99.99
2016-06-28T00:35:03.435Z,99.99
2016-06-28T00:35:33.464Z,99.99
2016-06-28T00:36:03.505Z,99.99
2016-06-28T00:36:33.530Z,99.99
2016-06-28T00:37:03.511Z,99.99
2016-06-28T00:37:33.513Z,99.99
2016-06-28T00:38:03.515Z,99.99
2016-06-28T00:38:33.537Z,99.99
2016-06-28T00:39:03.584Z,99.99
2016-06-28T00:39:33.577Z,99.99
2016-06-28T00:40:02.996Z,99.99
2016-06-28T00:40:33.603Z,99.99
2016-06-28T00:41:03.619Z,99.99
2016-06-28T00:41:33.629Z,99.99
2016-06-28T00:42:03.638Z,99.99
2016-06-28T00:42:33.672Z,99.99
2016-06-28T00:43:03.680Z,99.99
2016-06-28T00:43:33.695Z,99.99
2016-06-28T00:44:03.707Z,99.99
2016-06-28T00:44:33.742Z,99.99
2016-06-28T00:45:03.747Z,99.99
2016-06-28T00:45:33.746Z,99.99
2016-06-28T00:46:03.793Z,99.99
2016-06-28T00:46:33.794Z,99.99
2016-06-28T00:47:03.790Z,99.99
2016-06-28T00:47:33.798Z,99.99
2016-06-28T00:48:03.839Z,99.99
2016-06-28T00:48:33.223Z,99.99
2016-06-28T00:49:03.855Z,99.99
2016-06-28T00:49:33.904Z,99.99
2016-06-28T00:50:03.899Z,99.99
2016-06-28T00:50:33.893Z,99.99
2016-06-28T00:51:03.903Z,99.99
2016-06-28T00:51:33.950Z,99.99
2016-06-28T00:52:03.936Z,99.99
2016-06-28T00:52:33.986Z,99.99
2016-06-28T00:53:03.960Z,99.99
2016-06-28T00:53:33.982Z,99.99
2016-06-28T00:54:04.010Z,99.99
2016-06-28T00:54:34.039Z,99.99
2016-06-28T00:55:04.022Z,99.99
2016-06-28T00:55:34.035Z,99.99
2016-06-28T00:56:04.042Z,99.99
2016-06-28T00:56:34.086Z,99.99
2016-06-28T00:57:04.088Z,99.99
2016-06-28T00:57:34.120Z,99.99
2016-06-28T00:58:04.103Z,99.99
2016-06-28T00:58:34.171Z,99.99
2016-06-28T00:59:04.146Z,99.99
2016-06-28T00:59:34.140Z,99.99
2016-06-28T01:00:04.171Z,99.99
2016-06-28T01:00:34.186Z,99.99
2016-06-28T01:01:04.222Z,99.99
2016-06-28T01:01:34.233Z,99.99
2016-06-28T01:02:04.264Z,99.99
2016-06-28T01:02:34.244Z,99.99
2016-06-28T01:03:04.256Z,99.99
2016-06-28T01:03:34.499Z,99.99
2016-06-28T01:04:04.297Z,99.99
2016-06-28T01:04:34.301Z,99.99
2016-06-28T01:05:03.718Z,99.99
2016-06-28T01:05:34.328Z,99.99
2016-06-28T01:06:04.366Z,99.99
2016-06-28T01:06:34.363Z,99.99
2016-06-28T01:07:04.393Z,99.99
2016-06-28T01:07:34.391Z,99.99
2016-06-28T01:08:04.411Z,99.99
2016-06-28T01:08:34.400Z,99.99
2016-06-28T01:09:04.443Z,99.99
2016-06-28T01:09:34.455Z,99.99
2016-06-28T01:10:04.490Z,99.99
2016-06-28T01:10:34.479Z,99.99
2016-06-28T01:11:04.479Z,99.99
2016-06-28T01:11:34.495Z,99.99
2016-06-28T01:12:04.521Z,99.99
2016-06-28T01:12:34.538Z,99.99
2016-06-28T01:13:04.585Z,99.99
2016-06-28T01:13:34.561Z,99.99
2016-06-28T01:14:04.581Z,99.99
2016-06-28T01:14:34.597Z,99.99
2016-06-28T01:15:04.606Z,99.99
2016-06-28T01:15:34.621Z,99.99
2016-06-28T01:16:04.645Z,99.99
2016-06-28T01:16:34.655Z,99.99
2016-06-28T01:17:04.665Z,99.99
2016-06-28T01:17:34.673Z,99.99
2016-06-28T01:18:04.693Z,99.99
2016-06-28T01:18:34.744Z,99.99
2016-06-28T01:19:04.715Z,99.99
2016-06-28T01:19:34.739Z,99.99
2016-06-28T01:20:04.771Z,99.99
2016-06-28T01:20:34.793Z,99.99
2016-06-28T01:21:04.808Z,99.99
2016-06-28T01:21:34.798Z,99.99
2016-06-28T01:22:04.813Z,99.99
2016-06-28T01:22:34.832Z,99.99
2016-06-28T01:23:04.829Z,99.99
2016-06-28T01:23:34.861Z,99.99
2016-06-28T01:24:04.880Z,99.99
2016-06-28T01:24:34.893Z,99.99
2016-06-28T01:25:04.910Z,99.99
2016-06-28T01:25:34.938Z,99.99
2016-06-28T01:26:04.938Z,99.99
2016-06-28T01:26:34.950Z,99.99
2016-06-28T01:27:04.946Z,99.99
2016-06-28T01:27:34.997Z,99.99
2016-06-28T01:28:05.001Z,99.99
2016-06-28T01:28:34.996Z,99.99
2016-06-28T01:29:05.032Z,99.99
2016-06-28T01:29:35.027Z,99.99
2016-06-28T01:30:04.469Z,99.99
2016-06-28T01:30:34.457Z,99.99
2016-06-28T01:31:05.063Z,99.99
2016-06-28T01:31:35.126Z,99.99
2016-06-28T01:32:05.111Z,99.99
2016-06-28T01:32:34.515Z,99.99
2016-06-28T01:33:05.126Z,99.99
2016-06-28T01:33:35.143Z,99.99
2016-06-28T01:34:05.175Z,99.99
2016-06-28T01:34:35.175Z,99.99
2016-06-28T01:35:05.197Z,99.99
2016-06-28T01:35:35.202Z,99.99
2016-06-28T01:36:05.217Z,99.99
2016-06-28T01:36:35.254Z,99.99
2016-06-28T01:37:05.266Z,99.99
2016-06-28T01:37:35.260Z,99.99
2016-06-28T01:38:05.278Z,99.99
2016-06-28T01:38:35.274Z,99.99
2016-06-28T01:39:05.319Z,99.99
2016-06-28T01:39:35.314Z,99.99
2016-06-28T01:40:05.342Z,99.99
2016-06-28T01:40:35.382Z,99.99
2016-06-28T01:41:05.374Z,99.99
2016-06-28T01:41:35.366Z,99.99
2016-06-28T01:42:05.396Z,99.99
2016-06-28T01:42:35.438Z,99.99
2016-06-28T01:43:05.651Z,99.99
2016-06-28T01:43:35.460Z,99.99
2016-06-28T01:44:05.474Z,99.99
2016-06-28T01:44:35.476Z,99.99
2016-06-28T01:45:04.877Z,99.99
2016-06-28T01:45:35.485Z,99.99
2016-06-28T01:46:05.511Z,99.99
2016-06-28T01:46:35.528Z,99.99
2016-06-28T01:47:05.560Z,99.99
2016-06-28T01:47:35.540Z,99.99
2016-06-28T01:48:05.570Z,99.99
2016-06-28T01:48:35.618Z,99.99
2016-06-28T01:49:05.581Z,99.99
2016-06-28T01:49:35.603Z,99.99
2016-06-28T01:50:05.621Z,99.99
2016-06-28T01:50:35.637Z,99.99
2016-06-28T01:51:05.875Z,99.99
2016-06-28T01:51:35.699Z,99.99
2016-06-28T01:52:05.686Z,99.99
2016-06-28T01:52:35.698Z,99.99
2016-06-28T01:53:05.706Z,99.99
2016-06-28T01:53:35.738Z,99.99
2016-06-28T01:54:05.755Z,99.99
2016-06-28T01:54:35.165Z,99.99
2016-06-28T01:55:05.775Z,99.99
2016-06-28T01:55:35.792Z,99.99
2016-06-28T01:56:05.800Z,99.99
2016-06-28T01:56:35.860Z,99.99
2016-06-28T01:57:05.821Z,99.99
2016-06-28T01:57:35.862Z,99.99
2016-06-28T01:58:05.885Z,99.99
2016-06-28T01:58:35.280Z,99.99
2016-06-28T01:59:05.878Z,99.99
2016-06-28T01:59:35.910Z,99.99
2016-06-28T02:00:05.931Z,99.99
2016-06-28T02:00:35.920Z,99.99
2016-06-28T02:01:05.942Z,99.99
2016-06-28T02:01:35.961Z,99.99
2016-06-28T02:02:05.986Z,99.99
2016-06-28T02:02:35.989Z,99.99
2016-06-28T02:03:06.019Z,99.99
2016-06-28T02:03:36.058Z,99.99
2016-06-28T02:04:06.022Z,99.99
2016-06-28T02:04:36.045Z,99.99
2016-06-28T02:05:06.052Z,99.99
2016-06-28T02:05:36.111Z,99.99
2016-06-28T02:06:06.110Z,99.99
2016-06-28T02:06:36.099Z,99.99
2016-06-28T02:07:06.128Z,99.99
2016-06-28T02:07:36.127Z,99.99
2016-06-28T02:08:06.155Z,99.99
2016-06-28T02:08:36.163Z,99.99
2016-06-28T02:09:05.569Z,99.99
2016-06-28T02:09:36.210Z,99.99
2016-06-28T02:10:06.210Z,99.99
2016-06-28T02:10:36.214Z,99.99
2016-06-28T02:11:06.223Z,99.99
2016-06-28T02:11:36.270Z,99.99
2016-06-28T02:12:05.669Z,99.99
2016-06-28T02:12:36.290Z,99.99
2016-06-28T02:13:06.307Z,99.99
2016-06-28T02:13:36.315Z,99.99
2016-06-28T02:14:06.326Z,99.99
2016-06-28T02:14:36.317Z,99.99
2016-06-28T02:15:06.341Z,99.99
2016-06-28T02:15:36.378Z,99.99
2016-06-28T02:16:06.399Z,99.99
2016-06-28T02:16:36.373Z,99.99
2016-06-28T02:17:05.835Z,99.99
2016-06-28T02:17:36.446Z,99.99
2016-06-28T02:18:06.439Z,99.99
2016-06-28T02:18:36.434Z,99.99
2016-06-28T02:19:06.467Z,99.99
2016-06-28T02:19:36.493Z,99.99
2016-06-28T02:20:06.471Z,99.99
2016-06-28T02:20:36.507Z,99.99
2016-06-28T02:21:06.514Z,99.99
2016-06-28T02:21:36.542Z,99.99
2016-06-28T02:22:06.582Z,99.99
2016-06-28T02:22:36.550Z,99.99
2016-06-28T02:23:06.583Z,99.99
2016-06-28T02:23:36.596Z,99.99
2016-06-28T02:24:06.631Z,99.99
2016-06-28T02:24:36.650Z,99.99
2016-06-28T02:25:06.650Z,99.99
2016-06-28T02:25:36.678Z,99.99
2016-06-28T02:26:06.685Z,99.99
2016-06-28T02:26:36.681Z,99.99
2016-06-28T02:27:06.702Z,99.99
2016-06-28T02:27:36.706Z,99.99
2016-06-28T02:28:06.738Z,99.99
2016-06-28T02:28:36.970Z,99.99
2016-06-28T02:29:06.747Z,99.99
2016-06-28T02:29:36.762Z,99.99
2016-06-28T02:30:06.808Z,99.99
2016-06-28T02:30:36.796Z,99.99
2016-06-28T02:31:06.839Z,99.99
2016-06-28T02:31:36.869Z,99.99
2016-06-28T02:32:06.874Z,99.99
2016-06-28T02:32:36.878Z,99.99
2016-06-28T02:33:06.897Z,99.99
2016-06-28T02:33:36.892Z,99.99
2016-06-28T02:34:06.920Z,99.99
2016-06-28T02:34:36.898Z,99.99
2016-06-28T02:35:06.938Z,99.99
2016-06-28T02:35:36.943Z,99.99
2016-06-28T02:36:06.938Z,99.99
2016-06-28T02:36:36.987Z,99.99
2016-06-28T02:37:06.980Z,99.99
2016-06-28T02:37:37.012Z,99.99
2016-06-28T02:38:07.015Z,99.99
2016-06-28T02:38:37.034Z,99.99
2016-06-28T02:39:07.037Z,99.99
2016-06-28T02:39:37.066Z,99.99
2016-06-28T02:40:07.093Z,99.99
2016-06-28T02:40:37.086Z,99.99
2016-06-28T02:41:07.125Z,99.99
2016-06-28T02:41:37.145Z,99.99
2016-06-28T02:42:06.524Z,99.99
2016-06-28T02:42:37.160Z,99.99
2016-06-28T02:43:07.150Z,99.99
2016-06-28T02:43:37.190Z,99.99
2016-06-28T02:44:07.196Z,99.99
2016-06-28T02:44:37.213Z,99.99
2016-06-28T02:45:07.213Z,99.99
2016-06-28T02:45:37.249Z,99.99
2016-06-28T02:46:07.254Z,99.99
2016-06-28T02:46:37.282Z,99.99
2016-06-28T02:47:07.279Z,99.99
2016-06-28T02:47:37.314Z,99.99
2016-06-28T02:48:07.324Z,99.99
2016-06-28T02:48:37.346Z,99.99
2016-06-28T02:49:07.336Z,99.99
2016-06-28T02:49:37.360Z,99.99
2016-06-28T02:50:07.366Z,99.99
2016-06-28T02:50:36.779Z,99.99
2016-06-28T02:51:07.386Z,99.99
2016-06-28T02:51:37.393Z,99.99
2016-06-28T02:52:07.399Z,99.99
2016-06-28T02:52:37.429Z,99.99
2016-06-28T02:53:07.431Z,99.99
2016-06-28T02:53:37.463Z,99.99
2016-06-28T02:54:07.472Z,99.99
2016-06-28T02:54:37.506Z,99.99
2016-06-28T02:55:07.503Z,99.99
2016-06-28T02:55:37.513Z,99.99
2016-06-28T02:56:07.528Z,99.99
2016-06-28T02:56:37.552Z,99.99
2016-06-28T02:57:07.577Z,99.99
2016-06-28T02:57:37.617Z,99.99
2016-06-28T02:58:07.636Z,99.99
2016-06-28T02:58:37.616Z,99.99
2016-06-28T02:59:07.619Z,99.99
2016-06-28T02:59:37.640Z,99.99
2016-06-28T03:00:07.648Z,99.99
2016-06-28T03:00:37.660Z,99.99
2016-06-28T03:01:07.664Z,99.99
2016-06-28T03:01:37.707Z,99.99
2016-06-28T03:02:07.713Z,99.99
2016-06-28T03:02:37.739Z,99.99
2016-06-28T03:03:07.739Z,99.99
2016-06-28T03:03:37.755Z,99.99
2016-06-28T03:04:07.763Z,99.99
2016-06-28T03:04:37.781Z,99.99
2016-06-28T03:05:07.791Z,99.99
2016-06-28T03:05:37.801Z,99.99
2016-06-28T03:06:07.820Z,99.99
2016-06-28T03:06:37.829Z,99.99
2016-06-28T03:07:07.852Z,99.99
2016-06-28T03:07:37.867Z,99.99
2016-06-28T03:08:07.929Z,99.99
2016-06-28T03:08:37.910Z,99.99
2016-06-28T03:09:07.910Z,99.99
2016-06-28T03:09:37.927Z,99.99
2016-06-28T03:10:07.948Z,99.99
2016-06-28T03:10:37.962Z,99.99
2016-06-28T03:11:07.954Z,99.99
2016-06-28T03:11:37.983Z,99.99
2016-06-28T03:12:07.994Z,99.99
2016-06-28T03:12:38.012Z,99.99
2016-06-28T03:13:07.428Z,99.99
2016-06-28T03:13:38.031Z,99.99
2016-06-28T03:14:08.060Z,99.99
2016-06-28T03:14:38.062Z,99.99
2016-06-28T03:15:07.518Z,99.99
2016-06-28T03:15:38.118Z,99.99
2016-06-28T03:16:08.111Z,99.99
2016-06-28T03:16:38.136Z,99.99
2016-06-28T03:17:08.135Z,99.99
2016-06-28T03:17:38.170Z,99.99
2016-06-28T03:18:08.174Z,99.99
2016-06-28T03:18:37.579Z,99.99
2016-06-28T03:19:08.202Z,99.99
2016-06-28T03:19:38.226Z,99.99
2016-06-28T03:20:08.226Z,99.99
2016-06-28T03:20:38.234Z,99.99
2016-06-28T03:21:08.248Z,99.99
2016-06-28T03:21:38.289Z,99.99
2016-06-28T03:22:08.278Z,99.99
2016-06-28T03:22:38.298Z,99.99
2016-06-28T03:23:08.315Z,99.99
2016-06-28T03:23:38.324Z,99.99
2016-06-28T03:24:08.346Z,99.99
2016-06-28T03:24:38.363Z,99.99
2016-06-28T03:25:08.386Z,99.99
2016-06-28T03:25:38.390Z,99.99
2016-06-28T03:26:08.394Z,99.99
2016-06-28T03:26:38.426Z,99.99
2016-06-28T03:27:08.445Z,99.99
2016-06-28T03:27:38.438Z,99.99
2016-06-28T03:28:08.463Z,99.99
2016-06-28T03:28:38.480Z,99.99
2016-06-28T03:29:08.504Z,99.99
2016-06-28T03:29:38.509Z,99.99
2016-06-28T03:30:08.534Z,99.99
2016-06-28T03:30:37.943Z,99.99
2016-06-28T03:31:08.542Z,99.99
2016-06-28T03:31:38.575Z,99.99
2016-06-28T03:32:08.564Z,99.99
2016-06-28T03:32:38.579Z,99.99
2016-06-28T03:33:08.627Z,99.99
2016-06-28T03:33:38.629Z,99.99
2016-06-28T03:34:08.630Z,99.99
2016-06-28T03:34:38.665Z,99.99
2016-06-28T03:35:08.661Z,99.99
2016-06-28T03:35:38.690Z,99.99
2016-06-28T03:36:08.686Z,99.99
2016-06-28T03:36:38.717Z,99.99
2016-06-28T03:37:08.739Z,99.99
2016-06-28T03:37:38.766Z,99.99
2016-06-28T03:38:08.747Z,99.99
2016-06-28T03:38:38.760Z,99.99
2016-06-28T03:39:08.192Z,99.99
2016-06-28T03:39:38.798Z,99.99
2016-06-28T03:40:08.803Z,99.99
2016-06-28T03:40:38.822Z,99.99
2016-06-28T03:41:08.823Z,99.99
2016-06-28T03:41:38.865Z,99.99
2016-06-28T03:42:08.868Z,99.99
2016-06-28T03:42:38.871Z,99.99
2016-06-28T03:43:08.907Z,99.99
2016-06-28T03:43:38.919Z,99.99
2016-06-28T03:44:08.920Z,99.99
2016-06-28T03:44:38.925Z,99.99
2016-06-28T03:45:08.973Z,99.99
2016-06-28T03:45:38.977Z,99.99
2016-06-28T03:46:08.990Z,99.99
2016-06-28T03:46:39.018Z,99.99
2016-06-28T03:47:09.040Z,99.99
2016-06-28T03:47:39.051Z,99.99
2016-06-28T03:48:09.067Z,99.99
2016-06-28T03:48:39.087Z,99.99
2016-06-28T03:49:09.081Z,99.99
2016-06-28T03:49:39.103Z,99.99
2016-06-28T03:50:09.127Z,99.99
2016-06-28T03:50:39.134Z,99.99
2016-06-28T03:51:09.152Z,99.99
2016-06-28T03:51:39.149Z,99.99
2016-06-28T03:52:09.175Z,99.99
2016-06-28T03:52:39.166Z,99.99
2016-06-28T03:53:09.180Z,99.99
2016-06-28T03:53:39.207Z,99.99
2016-06-28T03:54:09.214Z,99.99
2016-06-28T03:54:39.241Z,99.99
2016-06-28T03:55:09.242Z,99.99
2016-06-28T03:55:39.266Z,99.99
2016-06-28T03:56:09.260Z,99.99
2016-06-28T03:56:39.301Z,99.99
2016-06-28T03:57:09.326Z,99.99
2016-06-28T03:57:39.316Z,99.99
2016-06-28T03:58:09.347Z,99.99
2016-06-28T03:58:39.356Z,99.99
2016-06-28T03:59:09.378Z,99.99
2016-06-28T03:59:39.368Z,99.99
2016-06-28T04:00:09.441Z,99.99
2016-06-28T04:00:39.413Z,99.99
2016-06-28T04:01:09.427Z,99.99
2016-06-28T04:01:39.431Z,99.99
2016-06-28T04:02:08.821Z,99.99
2016-06-28T04:02:39.477Z,99.99
2016-06-28T04:03:09.479Z,99.99
2016-06-28T04:03:39.489Z,99.99
2016-06-28T04:04:09.493Z,99.99
2016-06-28T04:04:39.501Z,99.99
2016-06-28T04:05:09.519Z,99.99
2016-06-28T04:05:39.539Z,99.99
2016-06-28T04:06:09.566Z,99.99
2016-06-28T04:06:39.575Z,99.99
2016-06-28T04:07:09.586Z,99.99
2016-06-28T04:07:39.595Z,99.99
2016-06-28T04:08:09.605Z,99.99
2016-06-28T04:08:39.624Z,99.99
2016-06-28T04:09:09.659Z,99.99
2016-06-28T04:09:39.655Z,99.99
2016-06-28T04:10:09.688Z,99.99
2016-06-28T04:10:39.689Z,99.99
2016-06-28T04:11:09.693Z,99.99
2016-06-28T04:11:39.719Z,99.99
2016-06-28T04:12:09.739Z,99.99
2016-06-28T04:12:39.747Z,99.99
2016-06-28T04:13:09.759Z,99.99
2016-06-28T04:13:39.166Z,99.99
2016-06-28T04:14:09.836Z,99.99
2016-06-28T04:14:39.791Z,99.99
2016-06-28T04:15:09.826Z,99.99
2016-06-28T04:15:39.853Z,99.99
2016-06-28T04:16:09.869Z,99.99
2016-06-28T04:16:39.855Z,99.99
2016-06-28T04:17:09.875Z,99.99
2016-06-28T04:17:39.893Z,99.99
2016-06-28T04:18:09.929Z,99.99
2016-06-28T04:18:39.920Z,99.99
2016-06-28T04:19:09.950Z,99.99
2016-06-28T04:19:39.950Z,99.99
2016-06-28T04:20:09.960Z,99.99
2016-06-28T04:20:39.975Z,99.99
2016-06-28T04:21:09.995Z,99.99
2016-06-28T04:21:40.019Z,99.99
2016-06-28T04:22:10.030Z,99.99
2016-06-28T04:22:40.041Z,99.99
2016-06-28T04:23:09.470Z,99.99
2016-06-28T04:23:40.070Z,99.99
2016-06-28T04:24:10.105Z,99.99
2016-06-28T04:24:40.087Z,99.99
2016-06-28T04:25:10.106Z,99.99
2016-06-28T04:25:40.147Z,99.99
2016-06-28T04:26:09.528Z,99.99
2016-06-28T04:26:40.161Z,99.99
2016-06-28T04:27:10.170Z,99.99
2016-06-28T04:27:40.183Z,99.99
2016-06-28T04:28:10.206Z,99.99
2016-06-28T04:28:40.209Z,99.99
2016-06-28T04:29:10.222Z,99.99
2016-06-28T04:29:40.256Z,99.99
2016-06-28T04:30:10.281Z,99.99
2016-06-28T04:30:40.323Z,99.99
2016-06-28T04:31:10.284Z,99.99
2016-06-28T04:31:40.312Z,99.99
2016-06-28T04:32:10.342Z,99.99
2016-06-28T04:32:39.753Z,99.99
2016-06-28T04:33:10.342Z,99.99
2016-06-28T04:33:40.391Z,99.99
2016-06-28T04:34:10.427Z,99.99
2016-06-28T04:34:40.407Z,99.99
2016-06-28T04:35:10.421Z,99.99
2016-06-28T04:35:45.474Z,99.99
2016-06-28T04:36:15.581Z,99.99
2016-06-28T04:36:40.572Z,99.99
2016-06-28T04:37:15.453Z,99.99
2016-06-28T04:37:45.479Z,99.99
2016-06-28T04:38:10.505Z,99.99
2016-06-28T04:38:46.073Z,99.99
2016-06-28T04:39:14.846Z,99.99
2016-06-28T04:39:44.197Z,99.99
2016-06-28T04:40:10.826Z,99.99
2016-06-28T04:40:45.769Z,99.99
2016-06-28T04:41:10.957Z,99.99
2016-06-28T04:41:46.309Z,99.99
2016-06-28T04:42:16.201Z,99.99
2016-06-28T04:42:45.626Z,99.99
2016-06-28T04:43:15.619Z,99.99
2016-06-28T04:43:46.023Z,99.99
2016-06-28T04:44:15.976Z,99.99
2016-06-28T04:44:46.079Z,99.99
2016-06-28T04:45:16.315Z,99.99
2016-06-28T04:45:45.410Z,99.99
2016-06-28T04:46:16.100Z,99.99
2016-06-28T04:46:45.769Z,99.99
2016-06-28T04:47:15.915Z,99.99
2016-06-28T04:47:45.559Z,99.99
2016-06-28T04:48:15.313Z,99.99
2016-06-28T04:48:46.007Z,99.99
2016-06-28T04:49:16.309Z,99.99
2016-06-28T04:49:46.028Z,99.99
2016-06-28T04:50:16.347Z,99.99
2016-06-28T04:50:45.446Z,99.99
2016-06-28T04:51:16.137Z,99.99
2016-06-28T04:51:45.684Z,99.99
2016-06-28T04:52:16.027Z,99.99
2016-06-28T04:52:46.510Z,99.99
2016-06-28T04:53:15.412Z,99.99
2016-06-28T04:53:46.338Z,99.99
2016-06-28T04:54:15.580Z,99.99
2016-06-28T04:54:46.306Z,99.99
2016-06-28T04:55:15.447Z,99.99
2016-06-28T04:55:43.275Z,99.99
2016-06-28T04:56:11.218Z,99.99
2016-06-28T04:56:44.097Z,99.99
2016-06-28T04:57:14.827Z,99.99
2016-06-28T04:57:45.783Z,99.99
2016-06-28T04:58:15.771Z,99.99
2016-06-28T04:58:45.841Z,99.99
2016-06-28T04:59:15.747Z,99.99
2016-06-28T04:59:45.886Z,99.99
2016-06-28T05:00:15.874Z,99.99
2016-06-28T05:00:46.724Z,99.99
2016-06-28T05:01:10.694Z,99.99
2016-06-28T05:01:41.193Z,99.99
2016-06-28T05:02:11.205Z,99.99
2016-06-28T05:02:41.228Z,99.99
2016-06-28T05:03:11.256Z,99.99
2016-06-28T05:03:41.283Z,99.99
2016-06-28T05:04:11.324Z,99.99
2016-06-28T05:04:41.302Z,99.99
2016-06-28T05:05:11.307Z,99.99
2016-06-28T05:05:41.301Z,99.99
2016-06-28T05:06:11.322Z,99.99
2016-06-28T05:06:41.346Z,99.99
2016-06-28T05:07:11.355Z,99.99
2016-06-28T05:07:41.387Z,99.99
2016-06-28T05:08:10.791Z,99.99
2016-06-28T05:08:41.406Z,99.99
2016-06-28T05:09:11.431Z,99.99
2016-06-28T05:09:41.428Z,99.99
2016-06-28T05:10:11.446Z,99.99
2016-06-28T05:10:41.470Z,99.15
2016-06-28T05:11:11.510Z,96.8
2016-06-28T05:11:41.470Z,94.07
2016-06-28T05:12:11.519Z,93.49
2016-06-28T05:12:41.529Z,92.63
2016-06-28T05:13:11.542Z,92.97
2016-06-28T05:13:41.563Z,91.77
2016-06-28T05:14:11.566Z,91.86
2016-06-28T05:14:41.606Z,92.35
2016-06-28T05:15:11.584Z,92.92
2016-06-28T05:15:41.632Z,93.26
2016-06-28T05:16:11.618Z,94.31
2016-06-28T05:16:41.662Z,94.36
2016-06-28T05:17:11.661Z,94.55
2016-06-28T05:17:41.062Z,95.89
2016-06-28T05:18:11.697Z,96.66
2016-06-28T05:18:41.710Z,96.84
2016-06-28T05:19:11.710Z,97.33
2016-06-28T05:19:41.746Z,96.99
2016-06-28T05:20:11.780Z,97.37
2016-06-28T05:20:41.770Z,97.18
2016-06-28T05:21:11.817Z,97.66
2016-06-28T05:21:41.822Z,97.37
2016-06-28T05:22:11.216Z,97.75
2016-06-28T05:22:41.842Z,97.33
2016-06-28T05:23:11.831Z,96.37
2016-06-28T05:23:41.850Z,95.89
2016-06-28T05:24:11.926Z,95.51
2016-06-28T05:24:41.889Z,94.84
2016-06-28T05:25:11.910Z,94.84
2016-06-28T05:25:41.938Z,95.51
2016-06-28T05:26:11.924Z,95.51
2016-06-28T05:26:41.960Z,96.47
2016-06-28T05:27:11.993Z,96.47
2016-06-28T05:27:41.979Z,96.47
2016-06-28T05:28:12.016Z,96.42
2016-06-28T05:28:42.052Z,96.32
2016-06-28T05:29:12.032Z,97.75
2016-06-28T05:29:42.037Z,97.56
2016-06-28T05:30:12.069Z,97.47
2016-06-28T05:30:42.076Z,98.14
2016-06-28T05:31:12.103Z,98.33
2016-06-28T05:31:42.093Z,98.28
2016-06-28T05:32:12.123Z,99.04
2016-06-28T05:32:42.157Z,98.18
2016-06-28T05:33:12.190Z,99.14
2016-06-28T05:33:42.160Z,99.57
2016-06-28T05:34:12.203Z,99.62
2016-06-28T05:34:42.224Z,99.24
2016-06-28T05:35:11.603Z,99.52
2016-06-28T05:35:42.224Z,99.99
2016-06-28T05:36:12.237Z,99.99
2016-06-28T05:36:42.262Z,99.99
2016-06-28T05:37:12.278Z,99.99
2016-06-28T05:37:42.347Z,99.19
2016-06-28T05:38:12.316Z,98.52
2016-06-28T05:38:42.323Z,99.38
2016-06-28T05:39:12.346Z,98.9
2016-06-28T05:39:42.342Z,99.29
2016-06-28T05:40:12.377Z,98.9
2016-06-28T05:40:42.394Z,98.71
2016-06-28T05:41:12.410Z,99.67
2016-06-28T05:41:42.406Z,99.48
2016-06-28T05:42:12.427Z,99.38
2016-06-28T05:42:42.444Z,99.48
2016-06-28T05:43:12.478Z,99.29
2016-06-28T05:43:42.464Z,99.48
2016-06-28T05:44:12.494Z,99.38
2016-06-28T05:44:42.509Z,98.81
2016-06-28T05:45:12.541Z,98.81
2016-06-28T05:45:42.527Z,98.81
2016-06-28T05:46:12.553Z,98.9
2016-06-28T05:46:42.568Z,98.9
2016-06-28T05:47:12.578Z,99.24
2016-06-28T05:47:42.602Z,98.76
2016-06-28T05:48:12.606Z,98.57
2016-06-28T05:48:42.622Z,98.61
2016-06-28T05:49:12.645Z,98.38
2016-06-28T05:49:42.653Z,96.84
2016-06-28T05:50:12.680Z,96.94
2016-06-28T05:50:42.683Z,96.27
2016-06-28T05:51:12.709Z,97.33
2016-06-28T05:51:42.715Z,97.23
2016-06-28T05:52:12.719Z,96.75
2016-06-28T05:52:42.745Z,96.08
2016-06-28T05:53:12.753Z,95.98
2016-06-28T05:53:42.800Z,96.08
2016-06-28T05:54:12.798Z,95.61
2016-06-28T05:54:42.803Z,96.08
2016-06-28T05:55:12.817Z,95.61
2016-06-28T05:55:42.867Z,95.7
2016-06-28T05:56:12.863Z,95.7
2016-06-28T05:56:42.860Z,95.61
2016-06-28T05:57:12.878Z,95.22
2016-06-28T05:57:42.947Z,94.65
2016-06-28T05:58:12.971Z,95.31
2016-06-28T05:58:42.323Z,95.27
2016-06-28T05:59:12.963Z,95.03
2016-06-28T05:59:42.970Z,95.07
2016-06-28T06:00:12.977Z,94.93
2016-06-28T06:00:43.019Z,94.69
2016-06-28T06:01:13.007Z,94.79
2016-06-28T06:01:43.050Z,95.46
2016-06-28T06:02:13.037Z,94.69
2016-06-28T06:02:43.052Z,93.54
2016-06-28T06:03:13.064Z,93.74
2016-06-28T06:03:43.108Z,94.6
2016-06-28T06:04:13.316Z,94.79
2016-06-28T06:04:43.103Z,94.5
2016-06-28T06:05:13.154Z,95.07
2016-06-28T06:05:43.141Z,94.5
2016-06-28T06:06:13.176Z,93.74
2016-06-28T06:06:43.182Z,92.68
2016-06-28T06:07:13.206Z,92.54
2016-06-28T06:07:43.210Z,92.73
2016-06-28T06:08:13.225Z,92.73
2016-06-28T06:08:43.262Z,93.3
2016-06-28T06:09:13.257Z,93.59
2016-06-28T06:09:43.275Z,93.98
2016-06-28T06:10:13.286Z,92.92
2016-06-28T06:10:43.317Z,92.35
2016-06-28T06:11:13.331Z,90.23
2016-06-28T06:11:43.338Z,89.37
2016-06-28T06:12:13.350Z,89.18
2016-06-28T06:12:43.379Z,88.9
2016-06-28T06:13:13.399Z,88.42
2016-06-28T06:13:43.398Z,87.84
2016-06-28T06:14:13.402Z,88.03
2016-06-28T06:14:43.423Z,88.51
2016-06-28T06:15:13.454Z,88.23
2016-06-28T06:15:43.477Z,87.98
2016-06-28T06:16:13.491Z,88.84
2016-06-28T06:16:43.503Z,89.42
2016-06-28T06:17:13.520Z,89.13
2016-06-28T06:17:43.525Z,90.09
2016-06-28T06:18:13.530Z,90.28
2016-06-28T06:18:43.550Z,87.98
2016-06-28T06:19:13.590Z,87.21
2016-06-28T06:19:43.579Z,86.01
2016-06-28T06:20:13.633Z,85.92
2016-06-28T06:20:43.616Z,84.71
2016-06-28T06:21:13.621Z,83.8
2016-06-28T06:21:43.676Z,82.68
2016-06-28T06:22:13.686Z,82.2
2016-06-28T06:22:43.695Z,81.42
2016-06-28T06:23:13.702Z,78
2016-06-28T06:23:43.721Z,76.69
2016-06-28T06:24:13.738Z,76.63
2016-06-28T06:24:43.735Z,75.8
2016-06-28T06:25:13.801Z,74.1
2016-06-28T06:25:43.806Z,72.25
2016-06-28T06:26:13.207Z,70.54
2016-06-28T06:26:43.824Z,69.42